sensor_id;sensor_type;location;lat;lon;timestamp;pressure;altitude;pressure_sealevel;temperature;humidity
38880;BME280;25887;30.194;-97.880;2023-04-24T00:00:29;98549.66;;;16.78;52.67
38880;BME280;25887;30.194;-97.880;2023-04-24T00:02:56;98554.06;;;16.73;52.73
38880;BME280;25887;30.194;-97.880;2023-04-24T00:05:24;98553.31;;;16.67;52.91
38880;BME280;25887;30.194;-97.880;2023-04-24T00:07:50;98558.59;;;16.63;52.94
38880;BME280;25887;30.194;-97.880;2023-04-24T00:10:21;98557.72;;;16.62;52.84
38880;BME280;25887;30.194;-97.880;2023-04-24T00:12:47;98567.31;;;16.60;52.96
38880;BME280;25887;30.194;-97.880;2023-04-24T00:15:13;98564.72;;;16.60;52.76
38880;BME280;25887;30.194;-97.880;2023-04-24T00:17:39;98562.16;;;16.59;52.85
38880;BME280;25887;30.194;-97.880;2023-04-24T00:20:06;98560.44;;;16.58;52.89
38880;BME280;25887;30.194;-97.880;2023-04-24T00:22:33;98566.53;;;16.55;52.89
38880;BME280;25887;30.194;-97.880;2023-04-24T00:24:59;98561.41;;;16.52;52.90
38880;BME280;25887;30.194;-97.880;2023-04-24T00:27:25;98570.09;;;16.51;52.89
38880;BME280;25887;30.194;-97.880;2023-04-24T00:29:51;98571.03;;;16.47;53.20
38880;BME280;25887;30.194;-97.880;2023-04-24T00:32:18;98574.47;;;16.48;53.26
38880;BME280;25887;30.194;-97.880;2023-04-24T00:34:44;98573.69;;;16.44;52.98
38880;BME280;25887;30.194;-97.880;2023-04-24T00:37:10;98567.69;;;16.42;53.03
38880;BME280;25887;30.194;-97.880;2023-04-24T00:39:37;98568.53;;;16.42;53.22
38880;BME280;25887;30.194;-97.880;2023-04-24T00:42:03;98570.34;;;16.39;53.12
38880;BME280;25887;30.194;-97.880;2023-04-24T00:44:33;98573.81;;;16.38;53.19
38880;BME280;25887;30.194;-97.880;2023-04-24T00:47:01;98579.84;;;16.38;53.31
38880;BME280;25887;30.194;-97.880;2023-04-24T00:49:27;98585.03;;;16.38;53.22
38880;BME280;25887;30.194;-97.880;2023-04-24T00:51:55;98600.59;;;16.38;53.15
38880;BME280;25887;30.194;-97.880;2023-04-24T00:54:22;98596.34;;;16.36;53.16
38880;BME280;25887;30.194;-97.880;2023-04-24T00:56:48;98594.56;;;16.38;53.31
38880;BME280;25887;30.194;-97.880;2023-04-24T00:59:17;98610.06;;;16.39;53.37
38880;BME280;25887;30.194;-97.880;2023-04-24T01:01:44;98616.13;;;16.40;53.30
38880;BME280;25887;30.194;-97.880;2023-04-24T01:04:12;98606.59;;;16.40;53.35
38880;BME280;25887;30.194;-97.880;2023-04-24T01:06:43;98600.53;;;16.41;53.47
38880;BME280;25887;30.194;-97.880;2023-04-24T01:09:11;98605.66;;;16.44;53.15
38880;BME280;25887;30.194;-97.880;2023-04-24T01:11:38;98601.28;;;16.47;53.00
38880;BME280;25887;30.194;-97.880;2023-04-24T01:14:06;98603.84;;;16.48;53.25
38880;BME280;25887;30.194;-97.880;2023-04-24T01:16:33;98611.63;;;16.48;53.22
38880;BME280;25887;30.194;-97.880;2023-04-24T01:19:00;98618.59;;;16.46;53.34
38880;BME280;25887;30.194;-97.880;2023-04-24T01:21:27;98622.00;;;16.48;53.31
38880;BME280;25887;30.194;-97.880;2023-04-24T01:23:55;98623.72;;;16.49;53.39
38880;BME280;25887;30.194;-97.880;2023-04-24T01:26:22;98628.91;;;16.49;53.39
38880;BME280;25887;30.194;-97.880;2023-04-24T01:28:51;98632.38;;;16.48;53.60
38880;BME280;25887;30.194;-97.880;2023-04-24T01:31:18;98635.84;;;16.47;53.46
38880;BME280;25887;30.194;-97.880;2023-04-24T01:33:45;98639.28;;;16.49;53.60
38880;BME280;25887;30.194;-97.880;2023-04-24T01:36:11;98637.56;;;16.48;53.56
38880;BME280;25887;30.194;-97.880;2023-04-24T01:38:38;98649.69;;;16.48;53.58
38880;BME280;25887;30.194;-97.880;2023-04-24T01:41:04;98651.41;;;16.47;53.58
38880;BME280;25887;30.194;-97.880;2023-04-24T01:43:30;98657.50;;;16.46;53.89
38880;BME280;25887;30.194;-97.880;2023-04-24T01:45:57;98655.81;;;16.43;53.71
38880;BME280;25887;30.194;-97.880;2023-04-24T01:48:23;98658.47;;;16.42;53.63
38880;BME280;25887;30.194;-97.880;2023-04-24T01:50:50;98667.09;;;16.41;53.70
38880;BME280;25887;30.194;-97.880;2023-04-24T01:53:16;98668.88;;;16.39;54.06
38880;BME280;25887;30.194;-97.880;2023-04-24T01:55:42;98671.50;;;16.37;53.80
38880;BME280;25887;30.194;-97.880;2023-04-24T01:58:09;98665.50;;;16.34;53.87
38880;BME280;25887;30.194;-97.880;2023-04-24T02:00:35;98676.75;;;16.33;53.80
38880;BME280;25887;30.194;-97.880;2023-04-24T02:03:01;98673.28;;;16.34;54.00
38880;BME280;25887;30.194;-97.880;2023-04-24T02:05:28;98675.00;;;16.33;53.79
38880;BME280;25887;30.194;-97.880;2023-04-24T02:07:54;98682.00;;;16.30;54.16
38880;BME280;25887;30.194;-97.880;2023-04-24T02:10:21;98680.34;;;16.26;53.94
38880;BME280;25887;30.194;-97.880;2023-04-24T02:12:49;98688.13;;;16.26;54.07
38880;BME280;25887;30.194;-97.880;2023-04-24T02:15:15;98688.19;;;16.23;54.28
38880;BME280;25887;30.194;-97.880;2023-04-24T02:17:41;98688.19;;;16.23;54.11
38880;BME280;25887;30.194;-97.880;2023-04-24T02:20:08;98692.47;;;16.24;54.06
38880;BME280;25887;30.194;-97.880;2023-04-24T02:22:34;98693.41;;;16.21;54.16
38880;BME280;25887;30.194;-97.880;2023-04-24T02:25:10;98699.38;;;16.25;53.97
38880;BME280;25887;30.194;-97.880;2023-04-24T02:27:36;98704.56;;;16.25;53.91
38880;BME280;25887;30.194;-97.880;2023-04-24T02:30:03;98701.97;;;16.25;53.97
38880;BME280;25887;30.194;-97.880;2023-04-24T02:32:29;98709.72;;;16.26;54.12
38880;BME280;25887;30.194;-97.880;2023-04-24T02:34:56;98709.75;;;16.25;54.19
38880;BME280;25887;30.194;-97.880;2023-04-24T02:37:22;98714.03;;;16.26;53.73
38880;BME280;25887;30.194;-97.880;2023-04-24T02:39:48;98714.03;;;16.26;53.98
38880;BME280;25887;30.194;-97.880;2023-04-24T02:42:21;98730.41;;;16.29;54.08
38880;BME280;25887;30.194;-97.880;2023-04-24T02:44:47;98724.41;;;16.27;54.19
38880;BME280;25887;30.194;-97.880;2023-04-24T02:47:13;98731.31;;;16.28;53.94
38880;BME280;25887;30.194;-97.880;2023-04-24T02:49:39;98736.53;;;16.27;54.04
38880;BME280;25887;30.194;-97.880;2023-04-24T02:52:06;98740.81;;;16.28;54.15
38880;BME280;25887;30.194;-97.880;2023-04-24T02:54:32;98744.25;;;16.28;54.11
38880;BME280;25887;30.194;-97.880;2023-04-24T02:56:58;98748.59;;;16.28;54.15
38880;BME280;25887;30.194;-97.880;2023-04-24T02:59:26;98752.94;;;16.26;54.20
38880;BME280;25887;30.194;-97.880;2023-04-24T03:01:54;98747.75;;;16.26;54.07
38880;BME280;25887;30.194;-97.880;2023-04-24T03:04:20;98752.06;;;16.25;54.34
38880;BME280;25887;30.194;-97.880;2023-04-24T03:06:48;98752.97;;;16.24;54.36
38880;BME280;25887;30.194;-97.880;2023-04-24T03:09:14;98758.16;;;16.24;54.36
38880;BME280;25887;30.194;-97.880;2023-04-24T03:11:40;98756.44;;;16.23;54.55
38880;BME280;25887;30.194;-97.880;2023-04-24T03:14:06;98751.28;;;16.22;54.32
38880;BME280;25887;30.194;-97.880;2023-04-24T03:16:32;98757.31;;;16.22;54.31
38880;BME280;25887;30.194;-97.880;2023-04-24T03:18:58;98751.25;;;16.23;54.50
38880;BME280;25887;30.194;-97.880;2023-04-24T03:21:24;98759.91;;;16.22;54.60
38880;BME280;25887;30.194;-97.880;2023-04-24T03:23:52;98759.06;;;16.22;54.69
38880;BME280;25887;30.194;-97.880;2023-04-24T03:26:18;98757.38;;;16.19;54.65
38880;BME280;25887;30.194;-97.880;2023-04-24T03:28:44;98763.41;;;16.18;54.46
38880;BME280;25887;30.194;-97.880;2023-04-24T03:31:10;98766.03;;;16.20;54.47
38880;BME280;25887;30.194;-97.880;2023-04-24T03:33:36;98770.31;;;16.21;54.67
38880;BME280;25887;30.194;-97.880;2023-04-24T03:36:04;98766.88;;;16.20;54.70
38880;BME280;25887;30.194;-97.880;2023-04-24T03:38:30;98772.94;;;16.19;54.63
38880;BME280;25887;30.194;-97.880;2023-04-24T03:40:57;98772.94;;;16.19;54.70
38880;BME280;25887;30.194;-97.880;2023-04-24T03:43:23;98761.72;;;16.17;54.80
38880;BME280;25887;30.194;-97.880;2023-04-24T03:45:49;98769.50;;;16.17;54.62
38880;BME280;25887;30.194;-97.880;2023-04-24T03:48:16;98763.47;;;16.16;54.80
38880;BME280;25887;30.194;-97.880;2023-04-24T03:50:42;98772.91;;;16.21;54.68
38880;BME280;25887;30.194;-97.880;2023-04-24T03:53:08;98772.00;;;16.23;54.46
38880;BME280;25887;30.194;-97.880;2023-04-24T03:55:34;98780.63;;;16.24;54.84
38880;BME280;25887;30.194;-97.880;2023-04-24T03:58:00;98776.31;;;16.23;54.68
38880;BME280;25887;30.194;-97.880;2023-04-24T04:00:27;98784.06;;;16.24;54.80
38880;BME280;25887;30.194;-97.880;2023-04-24T04:02:53;98781.44;;;16.26;54.49
38880;BME280;25887;30.194;-97.880;2023-04-24T04:05:19;98778.84;;;16.26;54.73
38880;BME280;25887;30.194;-97.880;2023-04-24T04:07:47;98776.25;;;16.26;54.79
38880;BME280;25887;30.194;-97.880;2023-04-24T04:10:13;98779.75;;;16.25;54.83
38880;BME280;25887;30.194;-97.880;2023-04-24T04:12:39;98775.41;;;16.27;54.77
38880;BME280;25887;30.194;-97.880;2023-04-24T04:15:06;98782.31;;;16.26;54.77
38880;BME280;25887;30.194;-97.880;2023-04-24T04:17:32;98785.78;;;16.27;54.80
38880;BME280;25887;30.194;-97.880;2023-04-24T04:19:59;98778.84;;;16.26;54.75
38880;BME280;25887;30.194;-97.880;2023-04-24T04:22:25;98778.84;;;16.26;54.99
38880;BME280;25887;30.194;-97.880;2023-04-24T04:24:51;98786.63;;;16.27;54.81
38880;BME280;25887;30.194;-97.880;2023-04-24T04:27:18;98782.31;;;16.26;54.74
38880;BME280;25887;30.194;-97.880;2023-04-24T04:29:44;98784.91;;;16.28;54.62
38880;BME280;25887;30.194;-97.880;2023-04-24T04:32:11;98782.31;;;16.28;54.71
38880;BME280;25887;30.194;-97.880;2023-04-24T04:34:38;98781.41;;;16.29;54.74
38880;BME280;25887;30.194;-97.880;2023-04-24T04:37:06;98782.31;;;16.28;54.91
38880;BME280;25887;30.194;-97.880;2023-04-24T04:39:33;98782.28;;;16.29;54.86
38880;BME280;25887;30.194;-97.880;2023-04-24T04:41:59;98790.03;;;16.29;54.88
38880;BME280;25887;30.194;-97.880;2023-04-24T04:44:26;98790.94;;;16.28;54.93
38880;BME280;25887;30.194;-97.880;2023-04-24T04:46:53;98790.97;;;16.27;54.94
38880;BME280;25887;30.194;-97.880;2023-04-24T04:49:22;98795.25;;;16.26;55.36
38880;BME280;25887;30.194;-97.880;2023-04-24T04:51:49;98796.16;;;16.25;55.01
38880;BME280;25887;30.194;-97.880;2023-04-24T04:54:16;98791.81;;;16.26;54.81
38880;BME280;25887;30.194;-97.880;2023-04-24T04:56:42;98788.38;;;16.27;54.85
38880;BME280;25887;30.194;-97.880;2023-04-24T04:59:08;98787.47;;;16.26;54.94
38880;BME280;25887;30.194;-97.880;2023-04-24T05:01:35;98783.22;;;16.24;55.04
38880;BME280;25887;30.194;-97.880;2023-04-24T05:04:01;98786.66;;;16.24;55.07
38880;BME280;25887;30.194;-97.880;2023-04-24T05:06:27;98788.41;;;16.24;55.11
38880;BME280;25887;30.194;-97.880;2023-04-24T05:08:53;98784.97;;;16.23;55.08
38880;BME280;25887;30.194;-97.880;2023-04-24T05:11:23;98787.59;;;16.22;55.14
38880;BME280;25887;30.194;-97.880;2023-04-24T05:13:51;98790.16;;;16.22;55.06
38880;BME280;25887;30.194;-97.880;2023-04-24T05:16:17;98789.25;;;16.24;55.04
38880;BME280;25887;30.194;-97.880;2023-04-24T05:18:43;98782.38;;;16.23;55.17
38880;BME280;25887;30.194;-97.880;2023-04-24T05:21:09;98781.50;;;16.23;54.90
38880;BME280;25887;30.194;-97.880;2023-04-24T05:23:35;98778.03;;;16.24;55.08
38880;BME280;25887;30.194;-97.880;2023-04-24T05:26:01;98788.38;;;16.27;55.02
38880;BME280;25887;30.194;-97.880;2023-04-24T05:28:28;98786.63;;;16.27;54.88
38880;BME280;25887;30.194;-97.880;2023-04-24T05:30:54;98793.56;;;16.27;55.07
38880;BME280;25887;30.194;-97.880;2023-04-24T05:33:24;98796.97;;;16.29;55.25
38880;BME280;25887;30.194;-97.880;2023-04-24T05:35:50;98799.59;;;16.27;55.12
38880;BME280;25887;30.194;-97.880;2023-04-24T05:38:17;98805.66;;;16.25;55.05
38880;BME280;25887;30.194;-97.880;2023-04-24T05:40:46;98810.81;;;16.26;55.01
38880;BME280;25887;30.194;-97.880;2023-04-24T05:43:15;98810.84;;;16.25;55.26
38880;BME280;25887;30.194;-97.880;2023-04-24T05:45:43;98812.63;;;16.23;55.25
38880;BME280;25887;30.194;-97.880;2023-04-24T05:48:09;98809.19;;;16.21;55.34
38880;BME280;25887;30.194;-97.880;2023-04-24T05:50:39;98797.94;;;16.22;55.27
38880;BME280;25887;30.194;-97.880;2023-04-24T05:53:05;98812.66;;;16.21;55.19
38880;BME280;25887;30.194;-97.880;2023-04-24T05:55:33;98819.56;;;16.21;55.31
38880;BME280;25887;30.194;-97.880;2023-04-24T05:57:59;98814.38;;;16.21;55.20
38880;BME280;25887;30.194;-97.880;2023-04-24T06:00:25;98812.69;;;16.20;55.37
38880;BME280;25887;30.194;-97.880;2023-04-24T06:02:52;98810.09;;;16.20;55.31
38880;BME280;25887;30.194;-97.880;2023-04-24T06:05:18;98812.69;;;16.20;55.52
38880;BME280;25887;30.194;-97.880;2023-04-24T06:07:44;98810.09;;;16.18;55.31
38880;BME280;25887;30.194;-97.880;2023-04-24T06:10:11;98811.81;;;16.17;55.46
38880;BME280;25887;30.194;-97.880;2023-04-24T06:12:37;98813.53;;;16.20;55.55
38880;BME280;25887;30.194;-97.880;2023-04-24T06:15:04;98810.09;;;16.20;55.59
38880;BME280;25887;30.194;-97.880;2023-04-24T06:17:31;98811.78;;;16.21;55.53
38880;BME280;25887;30.194;-97.880;2023-04-24T06:19:57;98804.00;;;16.21;55.37
38880;BME280;25887;30.194;-97.880;2023-04-24T06:22:24;98804.91;;;16.18;55.60
38880;BME280;25887;30.194;-97.880;2023-04-24T06:24:50;98798.00;;;16.19;55.53
38880;BME280;25887;30.194;-97.880;2023-04-24T06:27:16;98793.69;;;16.17;55.65
38880;BME280;25887;30.194;-97.880;2023-04-24T06:29:42;98801.50;;;16.14;55.69
38880;BME280;25887;30.194;-97.880;2023-04-24T06:32:09;98801.53;;;16.13;55.78
38880;BME280;25887;30.194;-97.880;2023-04-24T06:34:35;98804.16;;;16.10;55.82
38880;BME280;25887;30.194;-97.880;2023-04-24T06:37:02;98805.03;;;16.12;55.72
38880;BME280;25887;30.194;-97.880;2023-04-24T06:39:28;98798.97;;;16.10;55.81
38880;BME280;25887;30.194;-97.880;2023-04-24T06:41:55;98796.41;;;16.08;55.91
38880;BME280;25887;30.194;-97.880;2023-04-24T06:44:21;98783.53;;;16.05;56.00
38880;BME280;25887;30.194;-97.880;2023-04-24T06:46:47;98786.16;;;16.04;55.85
38880;BME280;25887;30.194;-97.880;2023-04-24T06:49:13;98792.22;;;16.01;55.91
38880;BME280;25887;30.194;-97.880;2023-04-24T06:51:41;98789.69;;;15.98;55.87
38880;BME280;25887;30.194;-97.880;2023-04-24T06:54:07;98787.13;;;15.95;56.04
38880;BME280;25887;30.194;-97.880;2023-04-24T06:56:33;98781.94;;;15.95;55.74
38880;BME280;25887;30.194;-97.880;2023-04-24T06:59:00;98785.41;;;15.94;56.09
38880;BME280;25887;30.194;-97.880;2023-04-24T07:01:26;98781.94;;;15.95;56.13
38880;BME280;25887;30.194;-97.880;2023-04-24T07:03:52;98773.38;;;15.90;56.35
38880;BME280;25887;30.194;-97.880;2023-04-24T07:06:19;98766.50;;;15.89;56.24
38880;BME280;25887;30.194;-97.880;2023-04-24T07:08:48;98769.09;;;15.89;56.29
38880;BME280;25887;30.194;-97.880;2023-04-24T07:11:14;98769.97;;;15.88;56.30
38880;BME280;25887;30.194;-97.880;2023-04-24T07:13:41;98763.94;;;15.86;56.55
38880;BME280;25887;30.194;-97.880;2023-04-24T07:16:08;98758.00;;;15.81;56.59
38880;BME280;25887;30.194;-97.880;2023-04-24T07:18:34;98757.16;;;15.77;56.66
38880;BME280;25887;30.194;-97.880;2023-04-24T07:21:02;98750.31;;;15.75;56.72
38880;BME280;25887;30.194;-97.880;2023-04-24T07:23:28;98746.03;;;15.72;56.75
38880;BME280;25887;30.194;-97.880;2023-04-24T07:25:54;98743.44;;;15.72;56.63
38880;BME280;25887;30.194;-97.880;2023-04-24T07:28:20;98746.03;;;15.71;56.71
38880;BME280;25887;30.194;-97.880;2023-04-24T07:30:46;98745.19;;;15.70;56.62
38880;BME280;25887;30.194;-97.880;2023-04-24T07:33:12;98741.72;;;15.70;56.68
38880;BME280;25887;30.194;-97.880;2023-04-24T07:35:39;98746.88;;;15.71;56.72
38880;BME280;25887;30.194;-97.880;2023-04-24T07:38:05;98741.72;;;15.70;56.72
38880;BME280;25887;30.194;-97.880;2023-04-24T07:40:31;98740.03;;;15.69;56.76
38880;BME280;25887;30.194;-97.880;2023-04-24T07:42:57;98731.41;;;15.68;56.82
38880;BME280;25887;30.194;-97.880;2023-04-24T07:45:24;98734.88;;;15.67;56.68
38880;BME280;25887;30.194;-97.880;2023-04-24T07:47:51;98733.13;;;15.68;56.55
38880;BME280;25887;30.194;-97.880;2023-04-24T07:50:18;98730.53;;;15.68;56.71
38880;BME280;25887;30.194;-97.880;2023-04-24T07:52:44;98722.81;;;15.66;56.50
38880;BME280;25887;30.194;-97.880;2023-04-24T07:55:12;98722.81;;;15.66;56.72
38880;BME280;25887;30.194;-97.880;2023-04-24T07:57:38;98718.50;;;15.64;56.60
38880;BME280;25887;30.194;-97.880;2023-04-24T08:00:05;98722.81;;;15.63;56.50
38880;BME280;25887;30.194;-97.880;2023-04-24T08:02:31;98719.38;;;15.63;56.62
38880;BME280;25887;30.194;-97.880;2023-04-24T08:04:57;98714.22;;;15.61;56.70
38880;BME280;25887;30.194;-97.880;2023-04-24T08:07:24;98715.09;;;15.62;56.50
38880;BME280;25887;30.194;-97.880;2023-04-24T08:09:50;98715.94;;;15.60;56.50
38880;BME280;25887;30.194;-97.880;2023-04-24T08:12:16;98707.34;;;15.58;56.45
38880;BME280;25887;30.194;-97.880;2023-04-24T08:14:42;98709.94;;;15.58;56.54
38880;BME280;25887;30.194;-97.880;2023-04-24T08:17:08;98700.41;;;15.60;56.47
38880;BME280;25887;30.194;-97.880;2023-04-24T08:19:34;98705.63;;;15.57;56.57
38880;BME280;25887;30.194;-97.880;2023-04-24T08:22:01;98707.34;;;15.58;56.55
38880;BME280;25887;30.194;-97.880;2023-04-24T08:24:27;98697.84;;;15.59;56.47
38880;BME280;25887;30.194;-97.880;2023-04-24T08:26:53;98693.50;;;15.59;56.47
38880;BME280;25887;30.194;-97.880;2023-04-24T08:29:22;98695.25;;;15.59;56.42
38880;BME280;25887;30.194;-97.880;2023-04-24T08:31:48;98700.44;;;15.59;56.52
38880;BME280;25887;30.194;-97.880;2023-04-24T08:34:14;98699.53;;;15.60;56.39
38880;BME280;25887;30.194;-97.880;2023-04-24T08:36:40;98705.59;;;15.59;56.37
38880;BME280;25887;30.194;-97.880;2023-04-24T08:39:07;98712.50;;;15.60;56.35
38880;BME280;25887;30.194;-97.880;2023-04-24T08:41:34;98715.97;;;15.59;56.21
38880;BME280;25887;30.194;-97.880;2023-04-24T08:44:02;98711.63;;;15.59;56.16
38880;BME280;25887;30.194;-97.880;2023-04-24T08:46:29;98713.41;;;15.57;56.36
38880;BME280;25887;30.194;-97.880;2023-04-24T08:48:56;98714.22;;;15.59;56.22
38880;BME280;25887;30.194;-97.880;2023-04-24T08:51:26;98716.81;;;15.59;56.13
38880;BME280;25887;30.194;-97.880;2023-04-24T08:53:54;98714.22;;;15.59;56.42
38880;BME280;25887;30.194;-97.880;2023-04-24T08:56:22;98716.81;;;15.59;56.25
38880;BME280;25887;30.194;-97.880;2023-04-24T08:58:50;98721.16;;;15.59;56.49
38880;BME280;25887;30.194;-97.880;2023-04-24T09:01:19;98729.78;;;15.59;56.03
38880;BME280;25887;30.194;-97.880;2023-04-24T09:03:48;98747.88;;;15.64;56.23
38880;BME280;25887;30.194;-97.880;2023-04-24T09:06:17;98748.69;;;15.66;56.25
38880;BME280;25887;30.194;-97.880;2023-04-24T09:08:45;98746.09;;;15.68;56.05
38880;BME280;25887;30.194;-97.880;2023-04-24T09:11:13;98752.97;;;15.69;55.93
38880;BME280;25887;30.194;-97.880;2023-04-24T09:13:39;98748.66;;;15.69;56.21
38880;BME280;25887;30.194;-97.880;2023-04-24T09:16:06;98762.41;;;15.71;56.02
38880;BME280;25887;30.194;-97.880;2023-04-24T09:18:32;98755.50;;;15.72;55.89
38880;BME280;25887;30.194;-97.880;2023-04-24T09:21:06;98750.31;;;15.72;55.80
38880;BME280;25887;30.194;-97.880;2023-04-24T09:23:32;98762.41;;;15.74;55.95
38880;BME280;25887;30.194;-97.880;2023-04-24T09:26:00;98760.66;;;15.75;56.15
38880;BME280;25887;30.194;-97.880;2023-04-24T09:28:31;98763.25;;;15.75;56.08
38880;BME280;25887;30.194;-97.880;2023-04-24T09:31:06;98766.72;;;15.74;56.18
38880;BME280;25887;30.194;-97.880;2023-04-24T09:33:33;98762.41;;;15.71;55.91
38880;BME280;25887;30.194;-97.880;2023-04-24T09:35:59;98754.69;;;15.70;55.90
38880;BME280;25887;30.194;-97.880;2023-04-24T09:38:34;98751.22;;;15.71;56.18
38880;BME280;25887;30.194;-97.880;2023-04-24T09:41:05;98750.31;;;15.75;55.93
38880;BME280;25887;30.194;-97.880;2023-04-24T09:43:32;98744.31;;;15.70;55.95
38880;BME280;25887;30.194;-97.880;2023-04-24T09:46:00;98744.38;;;15.67;56.14
38880;BME280;25887;30.194;-97.880;2023-04-24T09:48:31;98742.63;;;15.69;55.96
38880;BME280;25887;30.194;-97.880;2023-04-24T09:50:58;98747.78;;;15.69;55.94
38880;BME280;25887;30.194;-97.880;2023-04-24T09:53:27;98746.97;;;15.67;55.92
38880;BME280;25887;30.194;-97.880;2023-04-24T09:55:54;98739.25;;;15.62;55.96
38880;BME280;25887;30.194;-97.880;2023-04-24T09:58:26;98740.97;;;15.63;56.49
38880;BME280;25887;30.194;-97.880;2023-04-24T10:00:56;98742.72;;;15.59;56.10
38880;BME280;25887;30.194;-97.880;2023-04-24T10:03:26;98739.25;;;15.60;55.98
38880;BME280;25887;30.194;-97.880;2023-04-24T10:06:01;98741.88;;;15.59;56.38
38880;BME280;25887;30.194;-97.880;2023-04-24T10:08:34;98740.97;;;15.60;56.15
38880;BME280;25887;30.194;-97.880;2023-04-24T10:11:00;98746.19;;;15.58;56.08
38880;BME280;25887;30.194;-97.880;2023-04-24T10:13:27;98749.66;;;15.57;56.26
38880;BME280;25887;30.194;-97.880;2023-04-24T10:15:56;98744.47;;;15.57;56.03
38880;BME280;25887;30.194;-97.880;2023-04-24T10:18:25;98748.81;;;15.57;55.93
38880;BME280;25887;30.194;-97.880;2023-04-24T10:20:53;98758.31;;;15.56;56.03
38880;BME280;25887;30.194;-97.880;2023-04-24T10:23:20;98764.34;;;15.57;55.97
38880;BME280;25887;30.194;-97.880;2023-04-24T10:25:48;98764.28;;;15.60;56.17
38880;BME280;25887;30.194;-97.880;2023-04-24T10:28:15;98774.66;;;15.62;55.95
38880;BME280;25887;30.194;-97.880;2023-04-24T10:30:43;98778.13;;;15.59;56.13
38880;BME280;25887;30.194;-97.880;2023-04-24T10:33:11;98767.75;;;15.59;56.08
38880;BME280;25887;30.194;-97.880;2023-04-24T10:35:42;98769.47;;;15.60;56.15
38880;BME280;25887;30.194;-97.880;2023-04-24T10:38:15;98768.63;;;15.59;55.94
38880;BME280;25887;30.194;-97.880;2023-04-24T10:40:43;98765.16;;;15.60;55.71
38880;BME280;25887;30.194;-97.880;2023-04-24T10:43:09;98761.69;;;15.60;55.91
38880;BME280;25887;30.194;-97.880;2023-04-24T10:45:39;98767.78;;;15.57;55.92
38880;BME280;25887;30.194;-97.880;2023-04-24T10:48:08;98772.09;;;15.58;55.81
38880;BME280;25887;30.194;-97.880;2023-04-24T10:53:27;98770.38;;;15.57;56.03
38880;BME280;25887;30.194;-97.880;2023-04-24T10:58:44;98771.28;;;15.53;56.15
38880;BME280;25887;30.194;-97.880;2023-04-24T11:01:28;98770.47;;;15.51;55.90
38880;BME280;25887;30.194;-97.880;2023-04-24T11:03:59;98786.00;;;15.48;56.36
38880;BME280;25887;30.194;-97.880;2023-04-24T11:06:30;98779.16;;;15.46;56.15
38880;BME280;25887;30.194;-97.880;2023-04-24T11:09:11;98786.06;;;15.45;56.03
38880;BME280;25887;30.194;-97.880;2023-04-24T11:11:45;98787.00;;;15.41;56.14
38880;BME280;25887;30.194;-97.880;2023-04-24T11:14:15;98784.41;;;15.40;56.17
38880;BME280;25887;30.194;-97.880;2023-04-24T11:16:45;98786.19;;;15.36;56.23
38880;BME280;25887;30.194;-97.880;2023-04-24T11:19:18;98791.41;;;15.33;56.13
38880;BME280;25887;30.194;-97.880;2023-04-24T11:21:48;98800.03;;;15.32;56.17
38880;BME280;25887;30.194;-97.880;2023-04-24T11:24:27;98794.84;;;15.32;56.36
38880;BME280;25887;30.194;-97.880;2023-04-24T11:27:01;98800.03;;;15.32;56.28
38880;BME280;25887;30.194;-97.880;2023-04-24T11:29:43;98796.59;;;15.33;56.35
38880;BME280;25887;30.194;-97.880;2023-04-24T11:32:30;98795.72;;;15.32;56.12
38880;BME280;25887;30.194;-97.880;2023-04-24T11:35:04;98800.09;;;15.29;56.29
38880;BME280;25887;30.194;-97.880;2023-04-24T11:37:41;98810.44;;;15.29;56.36
38880;BME280;25887;30.194;-97.880;2023-04-24T11:40:13;98801.84;;;15.27;56.30
38880;BME280;25887;30.194;-97.880;2023-04-24T11:42:45;98803.56;;;15.25;56.34
38880;BME280;25887;30.194;-97.880;2023-04-24T11:47:42;98810.50;;;15.26;56.40
38880;BME280;25887;30.194;-97.880;2023-04-24T11:50:13;98819.97;;;15.27;56.29
38880;BME280;25887;30.194;-97.880;2023-04-24T11:52:44;98811.31;;;15.28;56.21
38880;BME280;25887;30.194;-97.880;2023-04-24T11:57:49;98821.59;;;15.32;56.69
38880;BME280;25887;30.194;-97.880;2023-04-24T12:00:17;98817.31;;;15.33;56.19
38880;BME280;25887;30.194;-97.880;2023-04-24T12:02:44;98821.59;;;15.32;56.22
38880;BME280;25887;30.194;-97.880;2023-04-24T12:05:20;98827.63;;;15.36;55.87
38880;BME280;25887;30.194;-97.880;2023-04-24T12:07:47;98826.75;;;15.36;56.28
38880;BME280;25887;30.194;-97.880;2023-04-24T12:10:13;98836.22;;;15.38;56.25
38880;BME280;25887;30.194;-97.880;2023-04-24T12:12:40;98828.44;;;15.38;56.27
38880;BME280;25887;30.194;-97.880;2023-04-24T12:15:08;98828.41;;;15.40;56.37
38880;BME280;25887;30.194;-97.880;2023-04-24T12:17:41;98820.66;;;15.41;56.33
38880;BME280;25887;30.194;-97.880;2023-04-24T12:20:08;98827.50;;;15.45;56.34
38880;BME280;25887;30.194;-97.880;2023-04-24T12:22:50;98837.81;;;15.48;56.14
38880;BME280;25887;30.194;-97.880;2023-04-24T12:25:18;98835.22;;;15.48;56.28
38880;BME280;25887;30.194;-97.880;2023-04-24T12:27:46;98846.38;;;15.53;56.34
38880;BME280;25887;30.194;-97.880;2023-04-24T12:30:16;98849.81;;;15.55;56.13
38880;BME280;25887;30.194;-97.880;2023-04-24T12:32:48;98841.19;;;15.56;56.27
38880;BME280;25887;30.194;-97.880;2023-04-24T12:35:22;98839.44;;;15.55;56.18
38880;BME280;25887;30.194;-97.880;2023-04-24T12:37:49;98842.91;;;15.54;56.24
38880;BME280;25887;30.194;-97.880;2023-04-24T12:40:17;98847.22;;;15.55;56.02
38880;BME280;25887;30.194;-97.880;2023-04-24T12:42:51;98847.22;;;15.55;56.25
38880;BME280;25887;30.194;-97.880;2023-04-24T12:45:18;98842.06;;;15.54;56.28
38880;BME280;25887;30.194;-97.880;2023-04-24T12:47:45;98850.69;;;15.54;56.00
38880;BME280;25887;30.194;-97.880;2023-04-24T12:50:13;98848.13;;;15.53;56.30
38880;BME280;25887;30.194;-97.880;2023-04-24T12:52:42;98854.19;;;15.52;56.51